createdAt,value
2018-07-02T00:00:07.326Z,0.80
2018-07-02T00:02:36.528Z,0.63
2018-07-02T00:05:05.305Z,0.40
2018-07-02T00:07:33.830Z,0.93
2018-07-02T00:10:02.443Z,3.80
2018-07-02T00:12:30.993Z,0.73
2018-07-02T00:14:59.441Z,0.20
2018-07-02T00:17:28.640Z,2.03
2018-07-02T00:19:57.160Z,2.00
2018-07-02T00:22:25.829Z,1.50
2018-07-02T00:24:54.987Z,1.43
2018-07-02T00:27:23.534Z,0.93
2018-07-02T00:29:51.997Z,2.43
2018-07-02T00:32:20.956Z,0.57
2018-07-02T00:34:49.846Z,0.60
2018-07-02T00:37:18.289Z,2.03
2018-07-02T00:39:47.069Z,1.40
2018-07-02T00:42:15.901Z,1.13
2018-07-02T00:44:44.657Z,0.77
2018-07-02T00:47:13.133Z,0.53
2018-07-02T00:49:41.952Z,0.97
2018-07-02T00:52:10.513Z,0.97
2018-07-02T00:54:39.227Z,1.00
2018-07-02T00:57:08.191Z,0.40
2018-07-02T00:59:36.813Z,0.57
2018-07-02T01:02:05.621Z,1.07
2018-07-02T01:04:34.337Z,1.13
2018-07-02T01:07:03.417Z,0.97
2018-07-02T01:09:32.335Z,2.57
2018-07-02T01:12:00.887Z,2.40
2018-07-02T01:14:29.642Z,0.87
2018-07-02T01:16:58.117Z,1.27
2018-07-02T01:19:26.571Z,0.87
2018-07-02T01:21:55.013Z,0.60
2018-07-02T01:24:23.448Z,1.53
2018-07-02T01:26:52.234Z,1.07
2018-07-02T01:29:20.701Z,3.23
2018-07-02T01:31:49.486Z,2.30
2018-07-02T01:34:18.605Z,0.40
2018-07-02T01:36:47.125Z,1.30
2018-07-02T01:39:15.677Z,1.60
2018-07-02T01:41:44.368Z,2.43
2018-07-02T01:44:13.031Z,1.63
2018-07-02T01:46:42.310Z,1.50
2018-07-02T01:49:10.772Z,0.70
2018-07-02T01:51:39.705Z,1.30
2018-07-02T01:54:08.189Z,0.87
2018-07-02T01:56:36.653Z,2.73
2018-07-02T01:59:05.425Z,1.93
2018-07-02T02:01:34.415Z,2.03
2018-07-02T02:04:02.887Z,2.67
2018-07-02T02:06:32.033Z,2.20
2018-07-02T02:09:00.692Z,3.20
2018-07-02T02:11:29.170Z,1.77
2018-07-02T02:13:57.842Z,1.00
2018-07-02T02:16:26.674Z,4.03
2018-07-02T02:18:55.228Z,1.10
2018-07-02T02:21:23.917Z,2.00
2018-07-02T02:23:52.422Z,0.50
2018-07-02T02:26:20.893Z,1.77
2018-07-02T02:28:49.669Z,1.83
2018-07-02T02:31:18.240Z,2.93
2018-07-02T02:33:46.734Z,1.13
2018-07-02T02:36:15.414Z,2.93
2018-07-02T02:38:44.096Z,0.83
2018-07-02T02:41:12.945Z,3.27
2018-07-02T02:43:41.573Z,2.53
2018-07-02T02:46:10.082Z,2.60
2018-07-02T02:48:38.877Z,0.80
2018-07-02T02:51:07.542Z,1.10
2018-07-02T02:53:36.505Z,5.03
2018-07-02T02:56:05.069Z,2.13
2018-07-02T02:58:33.682Z,2.30
2018-07-02T03:01:02.238Z,3.57
2018-07-02T03:03:31.573Z,0.77
2018-07-02T03:06:00.142Z,1.87
2018-07-02T03:08:28.820Z,5.50
2018-07-02T03:10:57.325Z,3.37
2018-07-02T03:13:25.982Z,3.90
2018-07-02T03:15:54.709Z,2.80
2018-07-02T03:18:23.505Z,5.73
2018-07-02T03:20:52.530Z,3.77
2018-07-02T03:23:21.253Z,5.37
2018-07-02T03:25:49.747Z,6.43
2018-07-02T03:28:18.210Z,7.30
2018-07-02T03:30:47.025Z,14.53
2018-07-02T03:33:15.485Z,13.00
2018-07-02T03:35:43.950Z,17.03
2018-07-02T03:38:12.750Z,15.00
2018-07-02T03:40:41.185Z,13.73
2018-07-02T03:43:09.668Z,14.90
2018-07-02T03:45:38.354Z,13.23
2018-07-02T03:48:06.809Z,15.97
2018-07-02T03:50:35.453Z,13.30
2018-07-02T03:53:04.337Z,12.13
2018-07-02T03:55:33.048Z,11.33
2018-07-02T03:58:08.429Z,10.10
2018-07-02T04:00:36.877Z,11.93
2018-07-02T04:03:05.429Z,9.40
2018-07-02T04:05:34.754Z,8.40
2018-07-02T04:08:03.509Z,11.93
2018-07-02T04:10:31.958Z,16.07
2018-07-02T04:13:00.684Z,12.53
2018-07-02T04:15:29.104Z,17.43
2018-07-02T04:17:57.901Z,19.97
2018-07-02T04:20:26.800Z,23.30
2018-07-02T04:22:55.255Z,25.67
2018-07-02T04:25:23.869Z,23.33
2018-07-02T04:27:53.233Z,19.97
2018-07-02T04:30:21.708Z,16.13
2018-07-02T04:32:50.169Z,14.17
2018-07-02T04:35:19.284Z,11.70
2018-07-02T04:37:47.961Z,9.67
2018-07-02T04:40:16.431Z,7.50
2018-07-02T04:42:44.992Z,5.70
2018-07-02T04:45:13.545Z,5.80
2018-07-02T04:47:42.690Z,4.63
2018-07-02T04:50:11.777Z,6.53
2018-07-02T04:52:40.761Z,5.70
2018-07-02T04:55:09.625Z,7.63
2018-07-02T04:57:38.753Z,7.23
2018-07-02T05:00:07.505Z,4.47
2018-07-02T05:02:36.465Z,6.13
2018-07-02T05:05:05.806Z,6.73
2018-07-02T05:07:35.039Z,6.43
2018-07-02T05:10:03.597Z,6.10
2018-07-02T05:12:32.457Z,5.83
2018-07-02T05:15:00.912Z,2.80
2018-07-02T05:17:29.367Z,4.00
2018-07-02T05:19:58.201Z,7.23
2018-07-02T05:22:27.048Z,5.73
2018-07-02T05:24:55.529Z,3.00
2018-07-02T05:27:24.425Z,5.77
2018-07-02T05:29:52.847Z,2.27
2018-07-02T05:32:21.271Z,3.90
2018-07-02T05:34:50.267Z,4.13
2018-07-02T05:37:18.693Z,4.17
2018-07-02T05:39:47.353Z,3.93
2018-07-02T05:42:16.061Z,3.50
2018-07-02T05:44:44.496Z,1.63
2018-07-02T05:47:13.109Z,3.70
2018-07-02T05:49:41.804Z,2.40
2018-07-02T05:52:10.446Z,3.40
2018-07-02T05:54:39.454Z,2.87
2018-07-02T05:57:07.926Z,2.47
2018-07-02T05:59:36.684Z,2.77
2018-07-02T06:02:05.229Z,3.77
2018-07-02T06:04:33.681Z,3.53
2018-07-02T06:07:02.557Z,2.70
2018-07-02T06:09:30.993Z,1.93
2018-07-02T06:11:59.497Z,3.03
2018-07-02T06:14:28.606Z,2.17
2018-07-02T06:16:57.174Z,2.50
2018-07-02T06:19:25.649Z,2.17
2018-07-02T06:21:54.619Z,3.83
2018-07-02T06:24:23.220Z,5.43
2018-07-02T06:26:51.702Z,3.67
2018-07-02T06:29:20.457Z,3.87
2018-07-02T06:31:48.905Z,3.73
2018-07-02T06:34:17.557Z,1.70
2018-07-02T06:36:46.205Z,4.17
2018-07-02T06:39:14.654Z,2.27
2018-07-02T06:41:43.128Z,3.20
2018-07-02T06:44:11.981Z,3.70
2018-07-02T06:46:40.457Z,3.00
2018-07-02T06:49:09.193Z,4.20
2018-07-02T06:51:38.033Z,1.90
2018-07-02T06:54:06.842Z,2.03
2018-07-02T06:56:36.168Z,1.83
2018-07-02T06:59:04.641Z,4.20
2018-07-02T07:01:33.640Z,2.43
2018-07-02T07:04:02.545Z,2.00
2018-07-02T07:06:31.053Z,2.17
2018-07-02T07:09:00.028Z,3.37
2018-07-02T07:11:28.604Z,4.17
2018-07-02T07:13:57.045Z,1.90
2018-07-02T07:16:25.485Z,3.43
2018-07-02T07:18:54.437Z,2.47
2018-07-02T07:21:22.877Z,3.63
2018-07-02T07:23:51.325Z,2.13
2018-07-02T07:26:20.026Z,2.30
2018-07-02T07:28:48.794Z,1.20
2018-07-02T07:31:17.534Z,2.50
2018-07-02T07:33:46.042Z,1.47
2018-07-02T07:36:14.826Z,1.63
2018-07-02T07:38:43.947Z,1.53
2018-07-02T07:41:13.119Z,2.03
2018-07-02T07:43:41.601Z,2.40
2018-07-02T07:46:10.261Z,1.77
2018-07-02T07:48:38.754Z,3.87
2018-07-02T07:51:07.223Z,2.33
2018-07-02T07:53:36.369Z,3.87
2018-07-02T07:56:05.525Z,1.60
2018-07-02T07:58:34.942Z,4.08
2018-07-02T08:01:03.658Z,1.55
2018-07-02T08:03:32.991Z,2.00
2018-07-02T08:06:01.485Z,2.00
2018-07-02T08:08:30.000Z,1.20
2018-07-02T08:10:58.945Z,3.22
2018-07-02T08:13:27.839Z,1.82
2018-07-02T08:15:56.297Z,2.55
2018-07-02T08:18:26.170Z,5.42
2018-07-02T08:20:54.614Z,1.98
2018-07-02T08:23:23.066Z,1.72
2018-07-02T08:25:52.328Z,2.58
2018-07-02T08:28:21.145Z,1.00
2018-07-02T08:30:49.590Z,4.17
2018-07-02T08:33:18.474Z,1.20
2018-07-02T08:35:46.923Z,1.95
2018-07-02T08:38:15.383Z,1.62
2018-07-02T08:40:44.277Z,2.95
2018-07-02T08:43:12.729Z,3.58
2018-07-02T08:45:41.191Z,1.20
2018-07-02T08:48:09.774Z,3.02
2018-07-02T08:50:38.205Z,4.33
2018-07-02T08:53:06.838Z,3.67
2018-07-02T08:55:36.061Z,3.33
2018-07-02T08:58:05.048Z,2.30
2018-07-02T09:00:33.628Z,1.40
2018-07-02T09:03:02.795Z,1.40
2018-07-02T09:05:31.438Z,1.75
2018-07-02T09:07:59.864Z,2.92
2018-07-02T09:10:28.366Z,2.52
2018-07-02T09:12:57.021Z,1.40
2018-07-02T09:15:25.992Z,2.90
2018-07-02T09:17:54.810Z,1.70
2018-07-02T09:20:23.261Z,3.35
2018-07-02T09:22:51.706Z,1.10
2018-07-02T09:25:20.694Z,1.05
2018-07-02T09:27:49.137Z,4.50
2018-07-02T09:30:17.667Z,1.60
2018-07-02T09:32:46.300Z,1.10
2018-07-02T09:35:14.742Z,1.10
2018-07-02T09:37:43.243Z,1.70
2018-07-02T09:40:11.797Z,1.60
2018-07-02T09:42:40.313Z,1.35
2018-07-02T09:45:09.031Z,1.72
2018-07-02T09:47:38.497Z,1.90
2018-07-02T09:50:07.077Z,1.50
2018-07-02T09:52:35.717Z,4.17
2018-07-02T09:55:04.813Z,0.98
2018-07-02T09:57:34.217Z,2.02
2018-07-02T10:00:02.954Z,2.05
2018-07-02T10:02:32.182Z,1.52
2018-07-02T10:05:00.635Z,1.45
2018-07-02T10:07:29.108Z,2.65
2018-07-02T10:09:57.777Z,1.72
2018-07-02T10:12:26.221Z,0.90
2018-07-02T10:14:54.683Z,0.98
2018-07-02T10:17:23.350Z,1.42
2018-07-02T10:19:51.807Z,2.05
2018-07-02T10:22:20.249Z,1.20
2018-07-02T10:24:49.041Z,2.52
2018-07-02T10:27:17.513Z,2.40
2018-07-02T10:29:45.981Z,2.70
2018-07-02T10:32:15.118Z,2.42
2018-07-02T10:34:43.668Z,2.30
2018-07-02T10:37:12.106Z,1.02
2018-07-02T10:39:41.259Z,2.80
2018-07-02T10:42:09.717Z,2.77
2018-07-02T10:44:38.399Z,2.33
2018-07-02T10:47:06.920Z,1.77
2018-07-02T10:49:35.426Z,1.25
2018-07-02T10:52:03.918Z,3.90
2018-07-02T10:54:32.569Z,2.22
2018-07-02T10:57:01.033Z,0.95
2018-07-02T10:59:29.487Z,4.15
2018-07-02T11:01:58.649Z,1.32
2018-07-02T11:04:27.249Z,0.90
2018-07-02T11:06:55.717Z,2.70
2018-07-02T11:09:24.544Z,1.65
2018-07-02T11:11:53.182Z,1.10
2018-07-02T11:14:27.964Z,2.30
2018-07-02T11:16:56.845Z,1.37
2018-07-02T11:19:25.301Z,2.08
2018-07-02T11:21:53.953Z,2.25
2018-07-02T11:24:22.386Z,0.80
2018-07-02T11:26:50.818Z,2.50
2018-07-02T11:29:19.377Z,1.30
2018-07-02T11:31:48.064Z,1.60
2018-07-02T11:34:16.912Z,2.42
2018-07-02T11:36:52.360Z,1.17
2018-07-02T11:39:20.797Z,2.92
2018-07-02T11:41:49.225Z,5.08
2018-07-02T11:44:19.053Z,2.62
2018-07-02T11:46:47.540Z,1.70
2018-07-02T11:49:16.285Z,2.02
2018-07-02T11:51:45.704Z,4.78
2018-07-02T11:54:14.697Z,0.75
2018-07-02T11:56:43.137Z,3.10
2018-07-02T11:59:11.773Z,1.95
2018-07-02T12:01:40.209Z,1.40
2018-07-02T12:04:08.748Z,0.95
2018-07-02T12:06:37.732Z,0.98
2018-07-02T12:09:08.517Z,2.35
2018-07-02T12:11:36.989Z,1.02
2018-07-02T12:14:05.573Z,2.80
2018-07-02T12:16:34.062Z,2.52
2018-07-02T12:19:02.603Z,2.40
2018-07-02T12:21:31.556Z,4.05
2018-07-02T12:24:00.013Z,2.10
2018-07-02T12:26:28.486Z,0.80
2018-07-02T12:28:57.063Z,2.23
2018-07-02T12:31:25.533Z,1.87
2018-07-02T12:33:53.976Z,1.87
2018-07-02T12:36:23.267Z,2.20
2018-07-02T12:38:51.777Z,1.30
2018-07-02T12:41:20.406Z,3.87
2018-07-02T12:43:49.312Z,1.57
2018-07-02T12:46:17.757Z,12.20
2018-07-02T12:48:46.187Z,3.23
2018-07-02T12:51:14.630Z,1.47
2018-07-02T12:53:43.091Z,1.20
2018-07-02T12:56:11.623Z,0.93
2018-07-02T12:58:40.368Z,2.57
2018-07-02T13:01:08.888Z,0.93
2018-07-02T13:03:37.319Z,6.73
2018-07-02T13:06:06.709Z,1.67
2018-07-02T13:08:35.855Z,1.83
2018-07-02T13:11:04.372Z,3.93
2018-07-02T13:13:33.715Z,2.00
2018-07-02T13:16:02.124Z,3.27
2018-07-02T13:18:30.606Z,5.03
2018-07-02T13:20:59.099Z,3.37
2018-07-02T13:23:27.561Z,2.27
2018-07-02T13:25:55.989Z,2.40
2018-07-02T13:28:25.085Z,6.63
2018-07-02T13:30:53.561Z,2.30
2018-07-02T13:33:22.043Z,0.70
2018-07-02T13:35:52.341Z,102.17
2018-07-02T13:38:21.257Z,91.87
2018-07-02T13:40:49.708Z,172.53
2018-07-02T13:43:18.864Z,26.60
2018-07-02T13:45:47.757Z,52.90
2018-07-02T13:48:17.246Z,3.50
2018-07-02T13:50:45.729Z,4.03
2018-07-02T13:53:14.177Z,1.83
2018-07-02T13:55:42.645Z,1.23
2018-07-02T13:58:11.265Z,1.33
2018-07-02T14:00:39.689Z,2.33
2018-07-02T14:03:08.175Z,1.50
2018-07-02T14:05:37.022Z,1.30
2018-07-02T14:08:05.985Z,3.23
2018-07-02T14:10:34.962Z,3.80
2018-07-02T14:13:03.432Z,7.10
2018-07-02T14:15:32.041Z,2.90
2018-07-02T14:18:00.498Z,2.37
2018-07-02T14:20:29.247Z,1.67
2018-07-02T14:22:57.693Z,3.10
2018-07-02T14:25:26.237Z,2.63
2018-07-02T14:27:54.781Z,3.17
2018-07-02T14:30:23.224Z,3.57
2018-07-02T14:32:51.752Z,6.40
2018-07-02T14:35:20.330Z,2.43
2018-07-02T14:37:48.926Z,2.77
2018-07-02T14:40:18.081Z,3.13
2018-07-02T14:42:47.082Z,2.10
2018-07-02T14:45:15.803Z,4.10
2018-07-02T14:47:44.031Z,6.07
2018-07-02T14:50:12.839Z,4.33
2018-07-02T14:52:41.275Z,3.63
2018-07-02T14:55:09.733Z,6.33
2018-07-02T14:57:38.662Z,2.83
2018-07-02T15:00:07.309Z,4.70
2018-07-02T15:02:35.817Z,2.20
2018-07-02T15:05:04.657Z,3.17
2018-07-02T15:07:33.099Z,2.93
2018-07-02T15:10:01.606Z,1.77
2018-07-02T15:12:30.388Z,2.20
2018-07-02T15:14:59.081Z,4.30
2018-07-02T15:17:27.653Z,3.63
2018-07-02T15:19:56.916Z,2.43
2018-07-02T15:22:25.508Z,2.20
2018-07-02T15:24:53.995Z,3.37
2018-07-02T15:27:23.209Z,1.20
2018-07-02T15:29:51.664Z,3.10
2018-07-02T15:32:20.369Z,6.13
2018-07-02T15:34:48.897Z,2.10
2018-07-02T15:37:17.351Z,2.53
2018-07-02T15:39:46.087Z,2.37
2018-07-02T15:42:14.614Z,2.40
2018-07-02T15:44:43.057Z,2.67
2018-07-02T15:47:11.590Z,1.47
2018-07-02T15:49:40.099Z,3.07
2018-07-02T15:52:09.028Z,2.93
2018-07-02T15:54:37.483Z,3.57
2018-07-02T15:57:06.925Z,3.00
2018-07-02T15:59:35.381Z,3.53
2018-07-02T16:02:04.062Z,3.47
2018-07-02T16:04:32.569Z,3.63
2018-07-02T16:07:01.130Z,2.37
2018-07-02T16:09:36.681Z,3.03
2018-07-02T16:12:05.231Z,2.30
2018-07-02T16:14:33.993Z,1.40
2018-07-02T16:17:02.717Z,6.23
2018-07-02T16:19:31.165Z,2.50
2018-07-02T16:21:59.701Z,3.63
2018-07-02T16:24:28.417Z,3.43
2018-07-02T16:26:56.925Z,3.73
2018-07-02T16:29:25.815Z,2.07
2018-07-02T16:31:54.610Z,4.47
2018-07-02T16:34:23.172Z,2.63
2018-07-02T16:36:51.706Z,5.97
2018-07-02T16:39:20.597Z,2.47
2018-07-02T16:41:49.047Z,1.67
2018-07-02T16:44:17.975Z,3.93
2018-07-02T16:46:47.049Z,1.60
2018-07-02T16:49:15.510Z,2.87
2018-07-02T16:51:44.160Z,1.60
2018-07-02T16:54:13.125Z,3.27
2018-07-02T16:56:41.612Z,1.53
2018-07-02T16:59:10.096Z,1.30
2018-07-02T17:01:39.166Z,1.90
2018-07-02T17:04:08.054Z,2.43
2018-07-02T17:06:36.611Z,5.30
2018-07-02T17:09:09.369Z,3.73
2018-07-02T17:11:38.506Z,2.40
2018-07-02T17:14:07.079Z,4.50
2018-07-02T17:16:36.098Z,2.43
2018-07-02T17:19:05.195Z,3.90
2018-07-02T17:21:33.750Z,2.47
2018-07-02T17:24:02.408Z,4.17
2018-07-02T17:26:30.949Z,2.70
2018-07-02T17:28:59.887Z,2.93
2018-07-02T17:31:28.478Z,3.00
2018-07-02T17:33:57.039Z,2.97
2018-07-02T17:36:25.507Z,4.20
2018-07-02T17:38:54.057Z,3.93
2018-07-02T17:41:22.597Z,1.90
2018-07-02T17:43:51.094Z,2.10
2018-07-02T17:46:19.724Z,2.50
2018-07-02T17:48:48.256Z,4.97
2018-07-02T17:51:16.717Z,2.73
2018-07-02T17:53:45.189Z,4.60
2018-07-02T17:56:14.306Z,2.97
2018-07-02T17:58:42.737Z,3.47
2018-07-02T18:01:12.404Z,3.03
2018-07-02T18:03:43.213Z,4.67
2018-07-02T18:06:11.662Z,5.03
2018-07-02T18:08:40.269Z,3.43
2018-07-02T18:11:08.905Z,1.80
2018-07-02T18:13:37.393Z,3.27
2018-07-02T18:16:06.113Z,2.57
2018-07-02T18:18:34.754Z,2.30
2018-07-02T18:21:03.658Z,5.17
2018-07-02T18:23:32.289Z,4.57
2018-07-02T18:26:01.247Z,2.00
2018-07-02T18:28:29.717Z,2.23
2018-07-02T18:30:58.349Z,2.73
2018-07-02T18:33:26.826Z,1.40
2018-07-02T18:35:55.383Z,2.17
2018-07-02T18:38:23.997Z,4.33
2018-07-02T18:40:52.433Z,3.43
2018-07-02T18:43:20.932Z,2.60
2018-07-02T18:45:49.544Z,3.47
2018-07-02T18:48:18.237Z,3.47
2018-07-02T18:50:46.674Z,4.40
2018-07-02T18:53:15.153Z,2.23
2018-07-02T18:55:43.700Z,3.13
2018-07-02T18:58:12.162Z,2.57
2018-07-02T19:00:40.730Z,2.33
2018-07-02T19:03:09.339Z,3.60
2018-07-02T19:05:37.935Z,2.83
2018-07-02T19:08:06.603Z,3.23
2018-07-02T19:10:36.124Z,2.10
2018-07-02T19:13:07.350Z,7.23
2018-07-02T19:15:35.804Z,4.80
2018-07-02T19:18:05.160Z,2.47
2018-07-02T19:20:34.189Z,3.67
2018-07-02T19:23:02.638Z,2.60
2018-07-02T19:25:31.216Z,2.43
2018-07-02T19:28:00.393Z,3.10
2018-07-02T19:30:28.911Z,2.57
2018-07-02T19:32:57.431Z,3.30
2018-07-02T19:35:26.119Z,3.57
2018-07-02T19:37:54.585Z,4.33
2018-07-02T19:40:23.059Z,2.53
2018-07-02T19:42:52.026Z,3.90
2018-07-02T19:45:20.605Z,2.27
2018-07-02T19:47:49.142Z,1.47
2018-07-02T19:50:17.924Z,3.33
2018-07-02T19:52:46.357Z,3.13
2018-07-02T19:55:14.899Z,2.67
2018-07-02T19:57:43.852Z,5.83
2018-07-02T20:00:12.347Z,3.40
2018-07-02T20:02:40.861Z,3.47
2018-07-02T20:05:09.831Z,3.30
2018-07-02T20:07:38.314Z,4.10
2018-07-02T20:10:07.009Z,3.80
2018-07-02T20:12:35.930Z,6.27
2018-07-02T20:15:04.458Z,4.57
2018-07-02T20:17:32.914Z,2.57
2018-07-02T20:20:01.995Z,2.87
2018-07-02T20:22:30.660Z,1.97
2018-07-02T20:24:59.205Z,3.23
2018-07-02T20:27:28.076Z,3.60
2018-07-02T20:29:56.518Z,3.50
2018-07-02T20:32:24.979Z,1.80
2018-07-02T20:34:54.108Z,2.57
2018-07-02T20:37:22.645Z,2.70
2018-07-02T20:39:51.093Z,5.17
2018-07-02T20:42:19.741Z,5.67
2018-07-02T20:44:48.274Z,3.13
2018-07-02T20:47:17.049Z,3.20
2018-07-02T20:49:46.246Z,4.47
2018-07-02T20:52:15.096Z,2.77
2018-07-02T20:54:43.590Z,4.03
2018-07-02T20:57:12.861Z,3.27
2018-07-02T20:59:41.291Z,2.13
2018-07-02T21:02:09.808Z,5.47
2018-07-02T21:04:38.828Z,2.83
2018-07-02T21:07:07.349Z,2.87
2018-07-02T21:09:35.793Z,3.33
2018-07-02T21:12:04.966Z,11.13
2018-07-02T21:14:34.606Z,6.03
2018-07-02T21:17:03.531Z,2.90
2018-07-02T21:19:32.222Z,5.27
2018-07-02T21:22:00.842Z,4.20
2018-07-02T21:24:30.223Z,4.10
2018-07-02T21:26:59.145Z,6.33
2018-07-02T21:29:28.009Z,4.33
2018-07-02T21:31:56.802Z,3.90
2018-07-02T21:34:26.115Z,2.57
2018-07-02T21:36:55.539Z,3.83
2018-07-02T21:39:25.031Z,3.13
2018-07-02T21:41:55.269Z,3.07
2018-07-02T21:44:23.723Z,1.57
2018-07-02T21:46:53.189Z,4.83
2018-07-02T21:49:22.221Z,5.83
2018-07-02T21:51:50.682Z,3.63
2018-07-02T21:54:19.221Z,3.83
2018-07-02T21:56:47.984Z,3.43
2018-07-02T21:59:16.439Z,3.63
2018-07-02T22:01:44.912Z,2.90
2018-07-02T22:04:13.719Z,1.73
2018-07-02T22:06:42.256Z,4.27
2018-07-02T22:09:11.701Z,2.97
2018-07-02T22:11:40.492Z,4.20
2018-07-02T22:14:08.990Z,2.30
2018-07-02T22:16:37.893Z,2.73
2018-07-02T22:19:07.129Z,1.97
2018-07-02T22:21:35.581Z,5.20
2018-07-02T22:24:04.096Z,4.50
2018-07-02T22:26:33.913Z,2.13
2018-07-02T22:29:02.365Z,2.00
2018-07-02T22:31:30.862Z,3.13
2018-07-02T22:33:59.513Z,1.87
2018-07-02T22:36:28.142Z,2.33
2018-07-02T22:39:03.364Z,3.20
2018-07-02T22:41:32.073Z,1.40
2018-07-02T22:44:00.493Z,2.77
2018-07-02T22:46:28.965Z,2.40
2018-07-02T22:48:57.453Z,1.87
2018-07-02T22:51:25.885Z,2.60
2018-07-02T22:53:54.458Z,2.57
2018-07-02T22:56:22.989Z,2.00
2018-07-02T22:58:51.627Z,2.97
2018-07-02T23:01:20.570Z,3.47
2018-07-02T23:03:49.089Z,2.47
2018-07-02T23:06:17.525Z,2.37
2018-07-02T23:08:46.291Z,2.27
2018-07-02T23:11:15.092Z,3.03
2018-07-02T23:13:43.589Z,4.00
2018-07-02T23:16:12.672Z,2.80
2018-07-02T23:18:41.478Z,2.73
2018-07-02T23:21:09.905Z,3.17
2018-07-02T23:23:38.789Z,3.93
2018-07-02T23:26:07.382Z,2.33
2018-07-02T23:28:36.505Z,3.97
2018-07-02T23:31:05.409Z,1.93
2018-07-02T23:33:33.934Z,1.50
2018-07-02T23:36:02.567Z,2.27
2018-07-02T23:38:31.458Z,2.97
2018-07-02T23:41:00.295Z,4.37
2018-07-02T23:43:28.805Z,3.40
2018-07-02T23:45:57.503Z,2.50
2018-07-02T23:48:26.270Z,3.10
2018-07-02T23:50:54.716Z,2.23
2018-07-02T23:53:23.587Z,2.27
2018-07-02T23:55:52.357Z,2.10
2018-07-02T23:58:21.222Z,2.77
